Time;durP1;ratioP1;P1;durP2;ratioP2;P2;SDS_P1;SDS_P2;PMS_P1;PMS_P2;Temp;Humidity;BMP_temperature;BMP_pressure;BME280_temperature;BME280_humidity;BME280_pressure;Samples;Min_cycle;Max_cycle;Signal;HPM_P1;HPM_P2
2023/01/19 00:00:00;;;;;;;24.73;21.85;;;;;;;0.65;100.00;100075.66;4987066;28;20034;-87
2023/01/19 00:02:25;;;;;;;27.83;21.55;;;;;;;0.66;100.00;100072.16;4987020;28;20044;-87
2023/01/19 00:04:51;;;;;;;26.85;20.50;;;;;;;0.65;100.00;100076.47;4992200;28;20045;-87
2023/01/19 00:07:16;;;;;;;23.98;20.85;;;;;;;0.64;100.00;100074.81;4990846;28;20053;-86
2023/01/19 00:09:42;;;;;;;22.63;20.23;;;;;;;0.67;100.00;100073.81;4995887;28;20403;-84
2023/01/19 00:12:08;;;;;;;28.25;21.10;;;;;;;0.66;100.00;100066.97;4988009;28;20483;-87
2023/01/19 00:14:33;;;;;;;25.52;20.83;;;;;;;0.68;100.00;100070.31;4989746;28;20046;-87
2023/01/19 00:17:00;;;;;;;26.02;21.73;;;;;;;0.67;100.00;100073.81;4993028;28;20030;-87
2023/01/19 00:19:26;;;;;;;24.08;21.23;;;;;;;0.68;100.00;100083.28;4974149;28;20030;-84
2023/01/19 00:21:52;;;;;;;24.40;21.65;;;;;;;0.69;100.00;100077.19;4998256;28;20122;-86
2023/01/19 00:24:21;;;;;;;24.35;21.65;;;;;;;0.71;100.00;100075.34;5000082;28;20125;-83
2023/01/19 00:26:46;;;;;;;24.33;21.70;;;;;;;0.73;100.00;100086.47;4992114;28;20043;-84
2023/01/19 00:29:12;;;;;;;24.73;21.80;;;;;;;0.73;100.00;100089.06;5003112;28;20116;-87
2023/01/19 00:31:38;;;;;;;24.45;21.77;;;;;;;0.75;100.00;100093.28;4994123;28;20124;-86
2023/01/19 00:34:04;;;;;;;23.45;20.95;;;;;;;0.75;100.00;100097.59;4992071;28;20575;-86
2023/01/19 00:36:30;;;;;;;24.45;20.65;;;;;;;0.78;100.00;100097.47;4975878;28;20049;-86
2023/01/19 00:38:55;;;;;;;26.73;21.92;;;;;;;0.79;100.00;100093.97;4977467;28;20026;-87
2023/01/19 00:42:38;;;;;;;23.50;20.25;;;;;;;0.81;100.00;100097.34;4976600;28;20449;-86
2023/01/19 00:44:06;;;;;;;24.88;21.90;;;;;;;0.80;100.00;100085.28;5012456;28;20073;-86
2023/01/19 00:46:32;;;;;;;24.55;20.95;;;;;;;0.80;100.00;100074.94;5012346;28;20085;-86
2023/01/19 00:48:57;;;;;;;23.13;20.38;;;;;;;0.80;100.00;100080.97;4994624;28;20034;-86
2023/01/19 00:51:22;;;;;;;27.08;21.30;;;;;;;0.77;100.00;100080.25;5012071;28;20046;-86
2023/01/19 00:53:51;;;;;;;23.08;20.23;;;;;;;0.74;100.00;100070.03;5004413;28;20057;-86
2023/01/19 00:56:16;;;;;;;25.63;20.38;;;;;;;0.73;100.00;100076.97;4972099;28;20557;-86
2023/01/19 00:58:43;;;;;;;21.98;19.33;;;;;;;0.72;100.00;100071.88;4992579;28;20030;-86
2023/01/19 01:01:09;;;;;;;22.58;20.02;;;;;;;0.72;100.00;100083.06;4991688;28;20093;-86
2023/01/19 01:03:35;;;;;;;24.42;19.88;;;;;;;0.72;100.00;100072.69;4992270;28;20442;-86
2023/01/19 01:06:02;;;;;;;22.52;19.38;;;;;;;0.71;100.00;100075.34;4992021;28;20162;-86
2023/01/19 01:08:28;;;;;;;21.67;19.13;;;;;;;0.71;100.00;100078.78;4978141;28;20133;-87
2023/01/19 01:10:54;;;;;;;21.13;18.58;;;;;;;0.73;100.00;100078.72;4975510;28;20030;-87
2023/01/19 01:13:19;;;;;;;22.65;18.95;;;;;;;0.72;100.00;100084.81;4980648;28;20034;-86
2023/01/19 01:15:49;;;;;;;21.08;18.25;;;;;;;0.74;100.00;100080.41;4976232;28;20042;-86
2023/01/19 01:18:15;;;;;;;25.33;18.98;;;;;;;0.74;100.00;100091.59;5012408;28;20026;-87
2023/01/19 01:20:40;;;;;;;22.48;18.48;;;;;;;0.74;100.00;100083.81;4992380;28;20049;-86
2023/01/19 01:23:05;;;;;;;22.25;17.65;;;;;;;0.77;100.00;100088.03;5009520;28;20038;-86
2023/01/19 01:25:32;;;;;;;23.83;17.73;;;;;;;0.81;100.00;100097.34;4995158;28;20045;-86
2023/01/19 01:27:58;;;;;;;19.67;17.58;;;;;;;0.85;100.00;100104.06;5009789;28;20372;-87
2023/01/19 01:30:23;;;;;;;21.60;17.00;;;;;;;0.88;100.00;100093.56;4993707;28;20053;-86
2023/01/19 01:32:49;;;;;;;18.77;16.77;;;;;;;0.90;100.00;100096.94;4990606;28;20038;-86
2023/01/19 01:35:15;;;;;;;21.63;16.90;;;;;;;0.94;100.00;100094.13;4991549;28;20038;-86
2023/01/19 01:37:41;;;;;;;19.60;16.10;;;;;;;0.95;100.00;100089.78;4991005;28;20049;-86
2023/01/19 01:40:10;;;;;;;21.20;15.85;;;;;;;0.97;100.00;100095.72;4990867;28;20660;-86
2023/01/19 01:42:35;;;;;;;21.17;16.35;;;;;;;0.98;100.00;100086.19;4990841;28;20125;-86
2023/01/19 01:45:12;;;;;;;20.92;15.63;;;;;;;1.01;100.00;100093.81;5003403;28;20164;-85
2023/01/19 01:47:47;;;;;;;23.02;15.95;;;;;;;1.02;100.00;100096.34;4978755;28;20538;-86
2023/01/19 01:50:28;;;;;;;21.02;15.52;;;;;;;1.07;100.00;100104.72;4989234;28;20174;-85
2023/01/19 01:53:14;;;;;;;19.15;15.02;;;;;;;1.09;100.00;100118.44;4991439;28;20500;-81
2023/01/19 01:55:47;;;;;;;19.00;15.43;;;;;;;1.07;100.00;100109.91;4988708;28;20072;-89
2023/01/19 01:58:15;;;;;;;21.42;15.77;;;;;;;1.02;100.00;100109.28;4997644;28;20137;-87
2023/01/19 02:03:25;;;;;;;20.20;14.65;;;;;;;0.81;100.00;100113.72;4992267;28;20045;-86
2023/01/19 02:05:56;;;;;;;21.80;15.35;;;;;;;0.75;100.00;100118.31;4998068;28;20030;-86
2023/01/19 02:14:08;;;;;;;18.15;14.25;;;;;;;0.54;100.00;100114.97;4988754;28;19924;-87
2023/01/19 02:16:36;;;;;;;25.00;15.68;;;;;;;0.50;100.00;100122.03;4997138;28;20125;-88
2023/01/19 02:19:07;;;;;;;18.85;14.40;;;;;;;0.50;100.00;100114.25;4997283;28;20037;-87
2023/01/19 02:21:45;;;;;;;20.73;14.68;;;;;;;0.48;100.00;100126.44;4997302;28;20046;-88
2023/01/19 02:24:11;;;;;;;20.15;15.02;;;;;;;0.48;100.00;100125.59;4996892;28;20038;-88
2023/01/19 02:26:41;;;;;;;22.25;15.43;;;;;;;0.46;100.00;100122.22;4998605;28;20380;-87
2023/01/19 02:29:12;;;;;;;24.42;16.63;;;;;;;0.47;100.00;100124.75;4974420;28;20034;-88
2023/01/19 02:31:39;;;;;;;21.33;16.15;;;;;;;0.46;100.00;100130.84;4971918;28;20026;-88
2023/01/19 02:34:07;;;;;;;24.42;17.20;;;;;;;0.46;100.00;100133.41;4989810;28;20491;-88
2023/01/19 02:36:39;;;;;;;26.05;17.40;;;;;;;0.47;100.00;100131.66;4990772;28;20030;-88
2023/01/19 02:39:05;;;;;;;13.90;6.88;;;;;;;0.53;100.00;100133.97;4973946;28;20113;-88
2023/01/19 02:41:37;;;;;;;21.92;17.45;;;;;;;0.48;100.00;100141.94;4992853;28;20040;-88
2023/01/19 02:44:05;;;;;;;22.60;17.85;;;;;;;0.46;100.00;100138.59;5001141;28;20046;-87
2023/01/19 02:46:31;;;;;;;23.77;18.40;;;;;;;0.43;100.00;100141.31;4989206;28;20510;-88
2023/01/19 02:49:00;;;;;;;22.52;17.75;;;;;;;0.39;100.00;100147.50;4991103;28;20046;-88
2023/01/19 02:51:27;;;;;;;27.02;20.20;;;;;;;0.32;100.00;100146.94;4990125;28;20410;-89
2023/01/19 02:54:20;;;;;;;22.08;18.52;;;;;;;0.35;100.00;100150.28;4989679;28;20438;-88
2023/01/19 02:57:25;;;;;;;25.10;18.67;;;;;;;0.29;100.00;100152.25;4998264;28;20384;-88
2023/01/19 03:00:21;;;;;;;20.63;18.30;;;;;;;0.22;100.00;100150.84;4980968;28;20038;-88
2023/01/19 03:03:07;;;;;;;23.77;19.95;;;;;;;0.17;100.00;100151.94;4991417;28;20395;-89
2023/01/19 03:05:50;;;;;;;22.83;20.45;;;;;;;0.15;100.00;100148.56;4991235;28;20101;-88
2023/01/19 03:08:30;;;;;;;22.55;20.15;;;;;;;0.09;100.00;100152.25;4989300;28;20037;-88
2023/01/19 03:11:05;;;;;;;23.70;21.20;;;;;;;0.02;100.00;100155.19;4997020;28;20121;-86
2023/01/19 03:13:56;;;;;;;23.65;21.13;;;;;;;0.01;100.00;100156.09;5001358;28;20037;-87
2023/01/19 03:16:45;;;;;;;27.05;23.60;;;;;;;-0.01;100.00;100167.31;4987663;28;20045;-88
2023/01/19 03:19:23;;;;;;;26.27;23.52;;;;;;;-0.06;100.00;100170.97;5009377;28;20036;-87
2023/01/19 03:21:58;;;;;;;27.08;24.17;;;;;;;-0.10;100.00;100170.28;4988953;28;20494;-86
2023/01/19 03:24:25;;;;;;;26.25;23.42;;;;;;;-0.13;100.00;100175.56;4989048;28;20046;-86
2023/01/19 03:26:59;;;;;;;25.88;23.08;;;;;;;-0.13;100.00;100180.75;4990125;28;20118;-86
2023/01/19 03:29:31;;;;;;;25.70;23.13;;;;;;;-0.15;100.00;100182.53;4988218;28;20487;-86
2023/01/19 03:32:00;;;;;;;26.60;24.00;;;;;;;-0.16;100.00;100177.44;4989668;28;20126;-86
2023/01/19 03:34:27;;;;;;;26.25;23.65;;;;;;;-0.17;100.00;100184.34;5000556;28;20042;-86
2023/01/19 03:36:56;;;;;;;26.58;23.98;;;;;;;-0.24;100.00;100187.25;4984571;28;20038;-86
2023/01/19 03:39:24;;;;;;;27.52;24.85;;;;;;;-0.27;100.00;100190.81;4983931;28;20031;-86
2023/01/19 03:41:55;;;;;;;26.92;24.33;;;;;;;-0.29;100.00;100195.19;4989658;28;20046;-85
2023/01/19 03:44:22;;;;;;;27.45;24.92;;;;;;;-0.30;100.00;100198.69;4987452;28;20030;-86
2023/01/19 03:46:51;;;;;;;26.83;24.23;;;;;;;-0.33;100.00;100191.06;4990125;28;20048;-83
2023/01/19 03:49:16;;;;;;;27.02;24.50;;;;;;;-0.34;100.00;100197.97;5009825;28;20599;-86
2023/01/19 03:51:42;;;;;;;27.48;24.95;;;;;;;-0.37;100.00;100197.25;5012405;28;20126;-85
2023/01/19 03:54:09;;;;;;;26.60;24.10;;;;;;;-0.36;100.00;100198.94;5010708;28;20108;-85
2023/01/19 03:56:35;;;;;;;26.90;24.45;;;;;;;-0.38;100.00;100211.06;4991172;28;20517;-85
2023/01/19 03:59:01;;;;;;;26.15;23.80;;;;;;;-0.39;100.00;100202.47;4995407;28;20034;-85
2023/01/19 04:01:26;;;;;;;26.17;23.77;;;;;;;-0.39;100.00;100219.72;5000520;28;20034;-85
2023/01/19 04:03:52;;;;;;;24.50;22.30;;;;;;;-0.38;100.00;100230.00;5012961;28;20436;-86
2023/01/19 04:06:21;;;;;;;23.77;21.58;;;;;;;-0.39;100.00;100230.06;4995498;28;20038;-87
2023/01/19 04:08:48;;;;;;;22.40;20.30;;;;;;;-0.39;100.00;100236.06;5005717;28;20104;-86
2023/01/19 04:11:14;;;;;;;23.73;21.63;;;;;;;-0.42;100.00;100235.31;5012188;28;20037;-87
2023/01/19 04:13:39;;;;;;;23.70;21.42;;;;;;;-0.44;100.00;100231.97;4989458;28;20038;-82
2023/01/19 04:16:05;;;;;;;21.15;19.30;;;;;;;-0.47;100.00;100226.91;4993600;28;20548;-86
2023/01/19 04:18:32;;;;;;;19.50;17.77;;;;;;;-0.45;100.00;100238.03;4975248;28;20121;-86
2023/01/19 04:21:03;;;;;;;18.40;16.70;;;;;;;-0.44;100.00;100243.13;5009502;28;20034;-86
2023/01/19 04:23:28;;;;;;;17.98;16.27;;;;;;;-0.45;100.00;100250.94;4995236;28;20037;-85
2023/01/19 04:25:58;;;;;;;17.15;15.55;;;;;;;-0.44;100.00;100258.63;5012999;28;20030;-86
2023/01/19 04:28:24;;;;;;;15.07;13.77;;;;;;;-0.43;100.00;100264.66;5010284;28;20045;-86
2023/01/19 04:30:51;;;;;;;13.10;12.00;;;;;;;-0.41;100.00;100266.28;4994453;28;20384;-85
2023/01/19 04:33:17;;;;;;;13.80;12.50;;;;;;;-0.41;100.00;100273.19;4992796;28;20030;-86
2023/01/19 04:35:44;;;;;;;12.63;11.52;;;;;;;-0.38;100.00;100276.53;4976375;28;20153;-86
2023/01/19 04:38:10;;;;;;;12.15;11.15;;;;;;;-0.35;100.00;100272.97;4999415;28;20042;-86
2023/01/19 04:40:35;;;;;;;12.07;11.05;;;;;;;-0.40;100.00;100280.91;4994796;28;20032;-87
2023/01/19 04:43:00;;;;;;;11.75;10.75;;;;;;;-0.35;100.00;100275.56;5013080;28;20156;-87
2023/01/19 04:45:26;;;;;;;10.25;9.32;;;;;;;-0.36;100.00;100266.97;5012726;28;20152;-87
2023/01/19 04:47:51;;;;;;;9.45;8.73;;;;;;;-0.36;100.00;100271.28;4994997;28;20046;-87
2023/01/19 04:50:21;;;;;;;9.68;8.88;;;;;;;-0.40;100.00;100280.03;4991503;28;20224;-87
2023/01/19 04:52:47;;;;;;;9.43;8.65;;;;;;;-0.37;100.00;100267.03;4982470;28;20038;-87
2023/01/19 04:55:13;;;;;;;11.13;10.13;;;;;;;-0.41;100.00;100253.34;4964039;28;20039;-87
2023/01/19 04:57:39;;;;;;;11.70;10.70;;;;;;;-0.43;100.00;100254.31;4973210;28;20195;-87
2023/01/19 05:00:06;;;;;;;13.38;12.07;;;;;;;-0.42;100.00;100237.91;4991829;28;20038;-87
2023/01/19 05:02:31;;;;;;;14.00;12.70;;;;;;;-0.42;100.00;100225.00;4983350;28;20440;-87
2023/01/19 05:04:58;;;;;;;14.32;13.02;;;;;;;-0.41;100.00;100221.50;4969937;28;20062;-81
2023/01/19 05:07:23;;;;;;;13.07;11.85;;;;;;;-0.41;100.00;100213.75;4982742;28;20117;-88
2023/01/19 05:09:48;;;;;;;12.10;10.90;;;;;;;-0.40;100.00;100215.44;4974892;28;20117;-88
2023/01/19 05:12:14;;;;;;;11.07;10.07;;;;;;;-0.37;100.00;100212.75;4963080;28;20042;-88
2023/01/19 05:14:39;;;;;;;13.35;10.30;;;;;;;-0.37;100.00;100200.69;4972518;28;20043;-88
2023/01/19 05:17:05;;;;;;;11.25;9.85;;;;;;;-0.36;100.00;100206.69;4981591;28;20178;-87
2023/01/19 05:19:31;;;;;;;11.25;10.25;;;;;;;-0.36;100.00;100209.28;4975820;28;20569;-87
2023/01/19 05:21:56;;;;;;;12.23;11.13;;;;;;;-0.34;100.00;100212.63;4985248;28;20126;-88
2023/01/19 05:24:22;;;;;;;14.50;13.15;;;;;;;-0.35;100.00;100208.38;4991852;28;20577;-87
2023/01/19 05:26:47;;;;;;;16.48;14.77;;;;;;;-0.37;100.00;100223.94;4990610;28;20081;-88
2023/01/19 05:29:12;;;;;;;17.92;16.13;;;;;;;-0.36;100.00;100229.94;4975765;28;20039;-87
2023/01/19 05:31:38;;;;;;;19.98;18.17;;;;;;;-0.38;100.00;100236.91;4966852;28;20178;-87
2023/01/19 05:34:04;;;;;;;23.35;21.15;;;;;;;-0.34;100.00;100241.06;4978070;28;20031;-87
2023/01/19 05:36:30;;;;;;;25.73;23.42;;;;;;;-0.35;100.00;100236.78;4997312;28;20026;-87
2023/01/19 05:38:56;;;;;;;26.40;24.00;;;;;;;-0.33;100.00;100245.31;4972954;28;20111;-88
2023/01/19 05:41:21;;;;;;;25.77;23.33;;;;;;;-0.35;100.00;100239.38;4964725;28;20087;-82
2023/01/19 05:43:46;;;;;;;26.05;23.60;;;;;;;-0.34;100.00;100241.06;4972328;28;20042;-89
2023/01/19 05:46:12;;;;;;;25.48;22.85;;;;;;;-0.32;100.00;100241.84;4973103;28;20038;-89
2023/01/19 05:48:38;;;;;;;25.15;22.55;;;;;;;-0.30;100.00;100244.38;4975275;28;20165;-90
2023/01/19 05:51:04;;;;;;;24.23;22.00;;;;;;;-0.34;100.00;100241.06;4989862;28;20030;-90
2023/01/19 05:53:30;;;;;;;26.95;24.13;;;;;;;-0.34;100.00;100239.31;4991174;28;20398;-90
2023/01/19 05:56:09;;;;;;;26.48;23.88;;;;;;;-0.32;100.00;100241.84;4987679;28;20088;-90
2023/01/19 05:58:41;;;;;;;27.35;24.55;;;;;;;-0.32;100.00;100244.44;4970990;28;20505;-91
2023/01/19 06:01:08;;;;;;;27.35;24.40;;;;;;;-0.28;100.00;100245.16;4977341;28;20034;-90
2023/01/19 06:03:38;;;;;;;26.63;23.92;;;;;;;-0.28;100.00;100248.56;4971968;28;20488;-90
2023/01/19 06:06:03;;;;;;;25.90;23.17;;;;;;;-0.27;100.00;100249.41;4971154;28;20046;-89
2023/01/19 06:08:32;;;;;;;26.10;23.42;;;;;;;-0.26;100.00;100257.09;4972554;28;20070;-91
2023/01/19 06:10:57;;;;;;;26.20;23.58;;;;;;;-0.24;100.00;100263.06;4971687;28;20113;-90
2023/01/19 06:13:23;;;;;;;26.77;24.00;;;;;;;-0.27;100.00;100255.41;4976262;28;20041;-91
2023/01/19 06:16:04;;;;;;;26.27;23.48;;;;;;;-0.24;100.00;100270.81;4971667;28;20034;-91
2023/01/19 06:18:30;;;;;;;18.25;9.32;;;;;;;-0.20;100.00;100268.94;4973755;28;20022;-90
2023/01/19 06:21:06;;;;;;;26.83;24.23;;;;;;;-0.25;100.00;100271.72;4980394;28;20045;-89
2023/01/19 06:23:34;;;;;;;26.95;24.25;;;;;;;-0.22;100.00;100284.50;4963056;28;20042;-89
2023/01/19 06:25:59;;;;;;;28.88;25.98;;;;;;;-0.20;100.00;100284.44;4971704;28;20038;-90
2023/01/19 06:28:25;;;;;;;31.73;28.38;;;;;;;-0.19;100.00;100286.97;4971176;28;20045;-88
2023/01/19 06:30:52;;;;;;;32.35;28.88;;;;;;;-0.22;100.00;100284.50;4973335;28;20062;-89
2023/01/19 06:33:27;;;;;;;33.38;30.08;;;;;;;-0.21;100.00;100287.94;4965123;28;20052;-89
2023/01/19 06:35:53;;;;;;;34.70;31.45;;;;;;;-0.22;100.00;100291.44;4992845;28;20043;-88
2023/01/19 06:38:22;;;;;;;35.63;32.22;;;;;;;-0.24;100.00;100288.91;4988901;28;20035;-89
2023/01/19 06:40:53;;;;;;;36.60;33.10;;;;;;;-0.21;100.00;100293.13;4972621;28;20037;-89
2023/01/19 06:43:21;;;;;;;38.97;35.00;;;;;;;-0.20;100.00;100299.97;4963220;28;20057;-89
2023/01/19 06:45:47;;;;;;;40.78;36.88;;;;;;;-0.21;100.00;100291.38;4970152;28;20509;-88
2023/01/19 06:48:13;;;;;;;43.85;39.70;;;;;;;-0.20;100.00;100293.06;4981275;28;20134;-88
2023/01/19 06:50:39;;;;;;;47.15;42.55;;;;;;;-0.17;100.00;100298.09;4993006;28;20030;-88
2023/01/19 06:53:05;;;;;;;48.33;43.45;;;;;;;-0.18;100.00;100299.00;4992498;28;20041;-86
2023/01/19 06:55:30;;;;;;;25.20;14.35;;;;;;;-0.12;100.00;100306.53;4997524;28;20030;-86
2023/01/19 06:57:57;;;;;;;49.00;44.08;;;;;;;-0.16;100.00;100304.94;4991109;28;20130;-87
2023/01/19 07:00:23;;;;;;;51.55;46.13;;;;;;;-0.16;100.00;100304.94;5005970;28;20034;-91
2023/01/19 07:02:48;;;;;;;51.80;46.45;;;;;;;-0.14;100.00;100321.25;4990502;28;20041;-86
2023/01/19 07:05:14;;;;;;;51.85;46.83;;;;;;;-0.15;100.00;100321.31;4991352;28;20526;-92
2023/01/19 07:07:41;;;;;;;51.35;46.20;;;;;;;-0.14;100.00;100323.84;4991135;28;20117;-94
2023/01/19 07:10:15;;;;;;;52.20;46.78;;;;;;;-0.16;100.00;100312.72;4974261;28;20046;-95
2023/01/19 07:13:00;;;;;;;55.20;49.50;;;;;;;-0.11;100.00;100317.69;4974613;28;20034;-96
2023/01/19 07:19:40;;;;;;;58.72;52.42;;;;;;;0.01;100.00;100343.09;4966343;28;20061;-96
2023/01/19 07:22:05;;;;;;;57.50;51.33;;;;;;;0.03;100.00;100338.72;4967830;28;20043;-85
2023/01/19 07:24:32;;;;;;;59.13;52.75;;;;;;;0.05;100.00;100338.66;4962957;28;20038;-85
2023/01/19 07:26:58;;;;;;;58.95;52.65;;;;;;;0.06;100.00;100351.53;4954042;28;20066;-85
2023/01/19 07:29:24;;;;;;;58.22;51.97;;;;;;;0.11;100.00;100359.09;4970003;28;20066;-85
2023/01/19 07:31:49;;;;;;;57.15;50.97;;;;;;;0.09;100.00;100356.56;4973042;28;20071;-86
2023/01/19 07:34:15;;;;;;;54.50;48.78;;;;;;;0.09;100.00;100353.16;4984050;28;20117;-85
2023/01/19 07:36:41;;;;;;;53.50;47.80;;;;;;;0.07;100.00;100362.72;4971033;28;20046;-85
2023/01/19 07:39:06;;;;;;;55.53;46.25;;;;;;;0.06;100.00;100363.63;4972567;28;20175;-84
2023/01/19 07:41:32;;;;;;;51.85;46.45;;;;;;;0.03;100.00;100372.34;4972527;28;20035;-85
2023/01/19 07:43:57;;;;;;;51.75;46.08;;;;;;;0.03;100.00;100379.25;4971466;28;20043;-85
2023/01/19 07:46:23;;;;;;;51.20;45.42;;;;;;;0.05;100.00;100374.84;4981881;28;20479;-85
2023/01/19 07:48:51;;;;;;;49.15;43.92;;;;;;;0.04;100.00;100388.69;4993740;28;20047;-85
2023/01/19 07:51:17;;;;;;;48.08;43.05;;;;;;;0.03;100.00;100392.19;4992867;28;20042;-85
2023/01/19 07:53:44;;;;;;;49.72;43.42;;;;;;;-0.01;100.00;100392.25;5008924;28;20045;-85
2023/01/19 07:56:10;;;;;;;54.38;45.25;;;;;;;0.00;100.00;100393.13;4992328;28;20058;-85
2023/01/19 07:58:35;;;;;;;48.75;43.53;;;;;;;-0.01;100.00;100386.25;5006291;28;20057;-85
2023/01/19 08:01:12;;;;;;;53.40;44.45;;;;;;;0.05;100.00;100396.38;4994882;28;20038;-85
2023/01/19 08:03:38;;;;;;;55.63;45.08;;;;;;;0.03;100.00;100394.75;5005922;28;20113;-85
2023/01/19 08:06:06;;;;;;;56.38;45.38;;;;;;;0.04;100.00;100409.38;4996180;28;20122;-85
2023/01/19 08:08:32;;;;;;;59.28;44.67;;;;;;;-0.01;100.00;100402.59;5004764;28;20399;-86
2023/01/19 08:10:58;;;;;;;59.17;46.45;;;;;;;0.00;100.00;100408.66;5006949;28;20046;-84
2023/01/19 08:13:27;;;;;;;57.80;47.00;;;;;;;-0.04;100.00;100410.47;4987592;28;20097;-85
2023/01/19 08:15:53;;;;;;;62.60;48.58;;;;;;;-0.05;100.00;100406.22;4976635;28;20034;-84
2023/01/19 08:18:21;;;;;;;66.90;47.75;;;;;;;-0.04;100.00;100419.97;4975274;28;20038;-84
2023/01/19 08:20:47;;;;;;;70.63;47.75;;;;;;;-0.05;100.00;100426.06;4993912;28;20038;-84
2023/01/19 08:23:12;;;;;;;62.47;47.90;;;;;;;-0.04;100.00;100417.41;4993177;28;20434;-84
2023/01/19 08:25:41;;;;;;;69.47;48.97;;;;;;;-0.06;100.00;100425.22;4991321;28;20039;-84
2023/01/19 08:28:07;;;;;;;69.78;48.75;;;;;;;-0.05;100.00;100432.06;4990756;28;20034;-84
2023/01/19 08:30:37;;;;;;;69.45;47.97;;;;;;;-0.05;100.00;100432.06;4957326;28;20392;-85
2023/01/19 08:33:08;;;;;;;65.60;47.58;;;;;;;-0.02;100.00;100439.72;4992940;28;20038;-84
2023/01/19 08:35:39;;;;;;;70.97;48.60;;;;;;;-0.01;100.00;100441.41;4988407;28;20145;-84
2023/01/19 08:38:06;;;;;;;74.20;48.63;;;;;;;-0.03;100.00;100445.78;4990657;28;20034;-84
2023/01/19 08:40:35;;;;;;;70.13;47.65;;;;;;;-0.04;100.00;100444.09;4991053;28;20371;-85
2023/01/19 08:43:06;;;;;;;73.63;49.58;;;;;;;-0.05;100.00;100450.16;4973282;28;20463;-85
2023/01/19 08:45:45;;;;;;;78.10;49.27;;;;;;;-0.03;100.00;100453.53;4992546;28;20034;-85
2023/01/19 08:48:11;;;;;;;72.03;48.28;;;;;;;-0.02;100.00;100462.97;4990637;28;20046;-85
2023/01/19 08:50:36;;;;;;;75.05;49.70;;;;;;;-0.04;100.00;100467.38;4991208;28;20053;-85
2023/01/19 08:53:08;;;;;;;74.35;50.47;;;;;;;-0.03;100.00;100465.63;4973473;28;20129;-83
2023/01/19 08:55:35;;;;;;;85.00;51.38;;;;;;;-0.01;100.00;100469.84;4973537;28;20046;-85
2023/01/19 08:58:02;;;;;;;81.93;50.35;;;;;;;0.03;100.00;100469.75;4993012;28;20122;-84
2023/01/19 09:00:36;;;;;;;80.88;50.17;;;;;;;0.00;100.00;100475.88;4973568;28;20041;-85
2023/01/19 09:03:02;;;;;;;79.57;49.38;;;;;;;0.02;100.00;100481.00;5007927;28;20034;-85
2023/01/19 09:05:30;;;;;;;77.65;49.92;;;;;;;0.01;100.00;100469.81;4980733;28;20057;-83
2023/01/19 09:07:56;;;;;;;80.57;50.28;;;;;;;-0.01;100.00;100474.16;4992126;28;20041;-85
2023/01/19 09:10:21;;;;;;;81.00;52.70;;;;;;;0.00;100.00;100475.88;4990011;28;20026;-85
2023/01/19 09:12:47;;;;;;;87.88;55.63;;;;;;;0.05;100.00;100478.31;4984277;28;20043;-84
2023/01/19 09:15:13;;;;;;;79.82;53.65;;;;;;;0.09;100.00;100480.72;4986603;28;20411;-84
2023/01/19 09:17:40;;;;;;;84.30;53.00;;;;;;;0.13;100.00;100484.03;4955182;28;20690;-84
2023/01/19 09:20:06;;;;;;;81.90;53.05;;;;;;;0.16;100.00;100487.34;4979954;28;20375;-84
2023/01/19 09:22:48;;;;;;;78.22;52.85;;;;;;;0.21;100.00;100488.00;4995661;28;20045;-83
2023/01/19 09:25:14;;;;;;;80.25;52.25;;;;;;;0.22;100.00;100481.09;5053266;23;20065;-96
2023/01/19 09:27:39;;;;;;;78.93;50.33;;;;;;;0.21;100.00;100485.44;5001805;28;20674;-96
2023/01/19 09:30:10;;;;;;;68.70;48.95;;;;;;;0.25;100.00;100481.81;5001603;28;20045;-96
2023/01/19 09:32:35;;;;;;;75.22;47.78;;;;;;;0.27;100.00;100490.38;5002987;28;20032;-96
2023/01/19 09:35:05;;;;;;;73.00;47.03;;;;;;;0.30;100.00;100489.41;5018128;28;20545;-96
2023/01/19 09:37:35;;;;;;;65.35;47.75;;;;;;;0.34;100.00;100485.81;5009160;28;20034;-96
2023/01/19 09:40:23;;;;;;;61.95;44.47;;;;;;;0.37;100.00;100496.03;5007029;28;20061;-96
2023/01/19 09:43:11;;;;;;;63.83;44.35;;;;;;;0.44;100.00;100502.69;5011438;28;20116;-96
2023/01/19 09:45:59;;;;;;;63.75;41.63;;;;;;;0.48;100.00;100499.09;5003696;28;20478;-96
2023/01/19 09:48:32;;;;;;;59.22;40.83;;;;;;;0.47;100.00;100504.31;5001768;28;20084;-96
2023/01/19 09:51:07;;;;;;;53.95;39.72;;;;;;;0.50;100.00;100506.78;5026667;28;20058;-96
2023/01/19 09:53:49;;;;;;;55.97;39.28;;;;;;;0.55;100.00;100505.72;5008059;28;20375;-96
2023/01/19 09:56:18;;;;;;;55.20;37.60;;;;;;;0.62;100.00;100511.50;5014468;28;20041;-96
2023/01/19 09:58:44;;;;;;;54.90;37.92;;;;;;;0.65;100.00;100510.53;4999119;28;20176;-96
2023/01/19 10:01:22;;;;;;;48.95;36.00;;;;;;;0.71;100.00;100518.06;4995917;28;20045;-96
2023/01/19 10:04:04;;;;;;;48.08;34.17;;;;;;;0.69;100.00;100517.25;4993836;28;20444;-95
2023/01/19 10:06:30;;;;;;;49.60;33.47;;;;;;;0.73;100.00;100524.00;4996036;28;20040;-96
2023/01/19 10:09:16;;;;;;;48.35;31.77;;;;;;;0.78;100.00;100522.94;4997054;28;20042;-96
2023/01/19 10:12:15;;;;;;;43.75;30.38;;;;;;;0.80;100.00;100531.50;5017238;28;20068;-96
2023/01/19 10:15:02;;;;;;;51.80;31.20;;;;;;;0.83;100.00;100533.13;5003701;28;20459;-95
2023/01/19 10:18:01;;;;;;;40.78;28.38;;;;;;;0.87;100.00;100537.28;4998053;28;20104;-96
2023/01/19 10:20:42;;;;;;;41.30;30.52;;;;;;;0.87;100.00;100537.28;4992472;28;20064;-96
2023/01/19 10:23:45;;;;;;;40.33;30.25;;;;;;;0.96;100.00;100541.25;5011534;28;20038;-96
2023/01/19 10:26:13;;;;;;;45.50;29.48;;;;;;;0.94;100.00;100538.72;5022219;28;20046;-96
2023/01/19 10:28:39;;;;;;;43.88;29.40;;;;;;;0.99;100.00;100541.97;5011395;28;20039;-96
2023/01/19 10:31:08;;;;;;;41.15;28.65;;;;;;;1.00;100.00;100548.00;5014885;28;20072;-96
2023/01/19 10:33:37;;;;;;;42.22;28.08;;;;;;;1.00;100.00;100545.41;4980743;28;20035;-96
2023/01/19 10:36:28;;;;;;;41.15;28.45;;;;;;;1.04;100.00;100534.03;4986287;28;20093;-96
2023/01/19 10:38:58;;;;;;;39.70;28.10;;;;;;;1.07;100.00;100539.91;4991498;28;20038;-96
2023/01/19 10:41:49;;;;;;;38.95;28.95;;;;;;;1.11;100.00;100541.47;4997580;28;20053;-96
2023/01/19 10:44:33;;;;;;;40.75;27.90;;;;;;;1.14;100.00;100543.94;4990453;28;20054;-95
2023/01/19 10:47:01;;;;;;;38.05;28.13;;;;;;;1.10;100.00;100539.78;4982945;28;20042;-96
2023/01/19 10:49:38;;;;;;;40.22;29.20;;;;;;;1.14;100.00;100540.50;4991417;28;20031;-96
2023/01/19 10:52:29;;;;;;;42.30;28.63;;;;;;;1.17;100.00;100545.56;4968694;28;20049;-94
2023/01/19 10:54:55;;;;;;;41.78;29.33;;;;;;;1.23;100.00;100540.16;4976252;28;20117;-95
2023/01/19 10:57:30;;;;;;;43.03;28.65;;;;;;;1.23;100.00;100546.19;4994811;28;20089;-95
2023/01/19 10:59:57;;;;;;;39.83;28.10;;;;;;;1.30;100.00;100545.94;5015519;28;20044;-96
2023/01/19 11:02:27;;;;;;;40.08;28.30;;;;;;;1.34;100.00;100543.16;4991082;28;20510;-96
2023/01/19 11:05:17;;;;;;;42.83;28.95;;;;;;;1.35;100.00;100538.81;4972613;28;20045;-95
2023/01/19 11:07:42;;;;;;;40.40;27.42;;;;;;;1.37;100.00;100537.84;4976209;28;20042;-96
2023/01/19 11:10:22;;;;;;;45.30;28.92;;;;;;;1.44;100.00;100543.63;4975770;28;20041;-96
2023/01/19 11:12:54;;;;;;;41.35;27.83;;;;;;;1.42;100.00;100545.44;4977862;28;20030;-96
2023/01/19 11:15:28;;;;;;;44.38;28.23;;;;;;;1.47;100.00;100539.16;4992976;28;20180;-96
2023/01/19 11:17:54;;;;;;;44.53;29.45;;;;;;;1.51;100.00;100545.03;4972897;28;20030;-96
2023/01/19 11:20:26;;;;;;;41.78;27.98;;;;;;;1.51;100.00;100542.44;4970056;28;20026;-96
2023/01/19 11:23:16;;;;;;;42.20;28.67;;;;;;;1.55;100.00;100538.81;4986384;28;20030;-96
2023/01/19 11:25:48;;;;;;;37.10;28.00;;;;;;;1.57;100.00;100535.25;5025425;28;20022;-95
2023/01/19 11:28:26;;;;;;;39.08;27.05;;;;;;;1.65;100.00;100539.31;4999414;23;20129;-81
2023/01/19 11:30:56;;;;;;;36.97;27.35;;;;;;;1.67;100.00;100533.16;5006318;28;20129;-79